Time;durP1;ratioP1;P1;durP2;ratioP2;P2;SDS_P1;SDS_P2;PMS_P1;PMS_P2;Temp;Humidity;BMP_temperature;BMP_pressure;BME280_temperature;BME280_humidity;BME280_pressure;Samples;Min_cycle;Max_cycle;Signal;HPM_P1;HPM_P2
2023/01/19 00:00:27;;;;;;;30.50;4.50;;;;;;;15.04;51.82;93727.06;5052438;28;20188;-54
2023/01/19 00:02:53;;;;;;;26.20;5.20;;;;;;;15.09;51.59;93709.38;5052408;28;20213;-51
2023/01/19 00:05:19;;;;;;;28.25;5.00;;;;;;;14.95;51.99;93711.00;5052669;28;20225;-53
2023/01/19 00:07:44;;;;;;;33.78;4.72;;;;;;;14.76;52.55;93687.75;5051876;28;20737;-56
2023/01/19 00:10:11;;;;;;;24.85;5.03;;;;;;;14.67;52.94;93689.59;5052547;28;20659;-56
2023/01/19 00:12:36;;;;;;;28.85;5.55;;;;;;;14.85;53.10;93699.44;5052074;28;20237;-56
2023/01/19 00:15:02;;;;;;;25.55;4.30;;;;;;;14.83;53.38;93676.59;5052249;28;20294;-54
2023/01/19 00:17:27;;;;;;;23.33;4.20;;;;;;;14.87;53.68;93675.28;5052531;28;20713;-55
2023/01/19 00:19:53;;;;;;;24.33;5.25;;;;;;;14.79;54.07;93662.59;5052040;28;20707;-57
2023/01/19 00:22:18;;;;;;;23.55;4.07;;;;;;;14.90;53.59;93699.72;5050497;28;20181;-56
2023/01/19 00:24:44;;;;;;;29.70;4.93;;;;;;;14.91;53.51;93685.94;5050582;28;20313;-56
2023/01/19 00:27:09;;;;;;;24.37;3.53;;;;;;;14.99;53.20;93699.44;5051951;28;20196;-55
2023/01/19 00:29:35;;;;;;;27.05;4.97;;;;;;;14.97;53.15;93706.50;5052244;28;20193;-55
2023/01/19 00:32:02;;;;;;;22.73;4.30;;;;;;;14.89;53.32;93678.44;5051970;28;20177;-56
2023/01/19 00:34:35;;;;;;;18.58;4.45;;;;;;;15.01;52.69;93714.59;5052302;28;20220;-55
2023/01/19 00:37:10;;;;;;;21.88;3.85;;;;;;;15.08;52.75;93718.03;5051939;28;20247;-56
2023/01/19 00:39:35;;;;;;;28.23;3.63;;;;;;;15.08;52.68;93723.16;5050533;28;20207;-55
2023/01/19 00:44:54;;;;;;;22.77;4.15;;;;;;;15.13;51.98;93744.69;5050057;28;20233;-55
2023/01/19 00:47:19;;;;;;;28.83;3.88;;;;;;;15.11;52.11;93721.03;5051426;28;20225;-56
2023/01/19 00:49:45;;;;;;;30.02;4.78;;;;;;;15.04;52.54;93704.81;5050761;28;20592;-56
2023/01/19 00:52:11;;;;;;;24.80;4.80;;;;;;;15.06;51.89;93713.13;5050525;28;20173;-56
2023/01/19 00:54:36;;;;;;;23.67;4.40;;;;;;;15.14;51.58;93707.88;5051836;28;20280;-57
2023/01/19 00:57:02;;;;;;;25.80;4.53;;;;;;;15.12;51.52;93701.34;5051418;28;20702;-55
2023/01/19 00:59:27;;;;;;;31.65;5.78;;;;;;;15.09;51.52;93707.63;5051591;28;20245;-57
2023/01/19 01:01:53;;;;;;;34.70;5.10;;;;;;;15.02;51.84;93698.28;5051675;28;20670;-60
2023/01/19 01:04:18;;;;;;;28.90;3.80;;;;;;;15.09;51.49;93681.22;5051248;28;20673;-57
2023/01/19 01:06:44;;;;;;;22.63;6.22;;;;;;;15.10;51.40;93698.97;5051655;28;20177;-57
2023/01/19 01:09:12;;;;;;;23.98;4.60;;;;;;;15.07;51.36;93688.28;5050094;28;20236;-62
2023/01/19 01:11:41;;;;;;;17.48;3.85;;;;;;;15.08;51.22;93680.44;5051393;28;20213;-61
2023/01/19 01:14:08;;;;;;;10.43;3.23;;;;;;;15.07;50.80;93691.66;5051405;28;20296;-55
2023/01/19 01:16:34;;;;;;;15.02;4.53;;;;;;;15.09;51.13;93681.22;5051513;28;20189;-56
2023/01/19 01:18:59;;;;;;;21.58;4.72;;;;;;;15.07;51.33;93678.03;5051072;28;20215;-56
2023/01/19 01:21:24;;;;;;;17.02;4.20;;;;;;;15.05;51.45;93673.13;5051296;28;20699;-56
2023/01/19 01:23:50;;;;;;;20.58;3.97;;;;;;;15.05;51.22;93673.13;5051157;28;20749;-56
2023/01/19 01:26:15;;;;;;;28.70;4.07;;;;;;;15.04;50.68;93704.81;5051144;28;20194;-58
2023/01/19 01:28:41;;;;;;;20.60;4.45;;;;;;;14.99;51.18;93688.41;5050980;28;20205;-60
2023/01/19 01:31:06;;;;;;;24.88;4.35;;;;;;;15.06;51.05;93684.94;5050895;28;20767;-57
2023/01/19 01:33:32;;;;;;;19.85;4.28;;;;;;;15.01;51.46;93674.44;5050917;28;20709;-56
2023/01/19 01:35:57;;;;;;;21.25;4.07;;;;;;;15.04;50.72;93697.13;5051386;28;20572;-54
2023/01/19 01:38:23;;;;;;;25.98;4.03;;;;;;;14.97;50.72;93691.13;5051061;28;20718;-56
2023/01/19 01:40:48;;;;;;;19.30;4.20;;;;;;;15.08;50.50;93703.50;5051147;28;20189;-55
2023/01/19 01:43:16;;;;;;;31.90;4.83;;;;;;;15.03;50.79;93698.09;5051004;28;20229;-56
2023/01/19 01:45:42;;;;;;;29.75;4.00;;;;;;;15.13;50.39;93731.88;5050520;28;20224;-55
2023/01/19 01:48:21;;;;;;;16.33;3.38;;;;;;;15.12;49.97;93734.63;5050943;28;20217;-56
2023/01/19 01:53:44;;;;;;;22.40;3.60;;;;;;;15.05;50.04;93710.72;5049026;28;20351;-54
2023/01/19 01:56:16;;;;;;;15.93;4.13;;;;;;;15.03;50.28;93716.00;5050801;28;20647;-57
2023/01/19 01:58:42;;;;;;;17.92;3.92;;;;;;;15.12;49.85;93729.50;5050782;28;20288;-56
2023/01/19 02:03:55;;;;;;;23.15;4.53;;;;;;;14.95;50.08;93702.53;5053860;28;20223;-57
2023/01/19 02:06:21;;;;;;;17.88;3.53;;;;;;;15.04;49.64;93712.50;5054319;28;20188;-56
2023/01/19 02:14:21;;;;;;;15.73;2.65;;;;;;;15.11;49.44;93728.72;5054171;28;20293;-57
2023/01/19 02:16:47;;;;;;;19.27;2.92;;;;;;;15.09;49.54;93730.66;5054057;28;20264;-55
2023/01/19 02:19:18;;;;;;;12.80;3.75;;;;;;;15.11;48.88;93713.34;5054158;28;20205;-56
2023/01/19 02:21:55;;;;;;;21.17;3.45;;;;;;;15.11;49.06;93717.66;5054229;28;20216;-52
2023/01/19 02:24:21;;;;;;;19.13;3.95;;;;;;;15.04;48.79;93725.28;5053448;28;20282;-56
2023/01/19 02:26:47;;;;;;;23.85;4.47;;;;;;;15.07;48.75;93707.00;5054036;28;20296;-55
2023/01/19 02:29:23;;;;;;;24.67;3.88;;;;;;;15.01;48.89;93706.91;5054056;28;20240;-57
2023/01/19 02:31:49;;;;;;;16.38;2.28;;;;;;;15.09;48.28;93702.50;5069377;28;20185;-54
2023/01/19 02:34:18;;;;;;;19.60;3.40;;;;;;;15.11;48.39;93710.00;5053751;28;20217;-55
2023/01/19 02:36:59;;;;;;;19.13;3.42;;;;;;;15.09;48.28;93735.78;5053816;28;20659;-54
2023/01/19 02:39:33;;;;;;;29.02;3.10;;;;;;;15.11;48.56;93735.59;5053769;28;20213;-58
2023/01/19 02:42:03;;;;;;;15.07;2.72;;;;;;;15.09;48.41;93704.25;5053688;28;20181;-52
2023/01/19 02:44:30;;;;;;;23.15;4.22;;;;;;;15.05;48.70;93695.34;5053675;28;20369;-53
2023/01/19 02:46:56;;;;;;;20.60;3.63;;;;;;;15.07;48.71;93714.69;5053678;28;20215;-52
2023/01/19 02:49:22;;;;;;;12.02;2.80;;;;;;;15.01;48.98;93687.25;5053593;28;20210;-54
2023/01/19 02:51:47;;;;;;;19.65;3.13;;;;;;;14.97;48.58;93706.50;5053525;28;20402;-53
2023/01/19 02:54:25;;;;;;;21.80;2.83;;;;;;;15.04;48.72;93717.63;5053466;28;20357;-52
2023/01/19 02:57:09;;;;;;;23.23;3.53;;;;;;;15.01;48.98;93702.59;5053437;28;20189;-53
2023/01/19 03:00:15;;;;;;;20.40;3.47;;;;;;;14.95;49.13;93708.44;5053531;28;20189;-53
2023/01/19 03:02:58;;;;;;;14.13;3.28;;;;;;;14.99;48.60;93708.88;5053453;28;20209;-57
2023/01/19 03:05:36;;;;;;;12.68;3.13;;;;;;;15.00;48.30;93715.59;5053710;28;20216;-55
2023/01/19 03:08:27;;;;;;;17.90;3.93;;;;;;;14.94;48.33;93717.09;5053551;28;20312;-54
2023/01/19 03:11:23;;;;;;;10.85;2.85;;;;;;;14.89;48.33;93708.34;5053229;28;20331;-52
2023/01/19 03:13:48;;;;;;;21.07;3.30;;;;;;;14.91;48.29;93719.22;5049074;28;20229;-56
2023/01/19 03:16:14;;;;;;;22.30;3.47;;;;;;;14.94;47.95;93741.91;5053010;28;20189;-57
2023/01/19 03:18:43;;;;;;;16.65;3.40;;;;;;;14.92;47.90;93731.84;5053001;28;20322;-58
2023/01/19 03:21:12;;;;;;;22.05;4.35;;;;;;;14.85;48.09;93702.81;5053035;28;20718;-56
2023/01/19 03:23:40;;;;;;;21.10;3.95;;;;;;;14.96;47.43;93786.81;5052990;28;20213;-54
2023/01/19 03:26:23;;;;;;;26.90;4.17;;;;;;;14.98;47.58;93707.28;5053239;28;20320;-51
2023/01/19 03:28:50;;;;;;;16.17;3.55;;;;;;;14.94;47.83;93694.06;5051793;28;20695;-55
2023/01/19 03:31:22;;;;;;;24.52;3.75;;;;;;;14.90;48.09;93685.16;5051949;28;20454;-55
2023/01/19 03:33:52;;;;;;;19.55;4.07;;;;;;;14.79;48.13;93656.66;5052002;28;20632;-59
2023/01/19 03:36:31;;;;;;;17.27;3.20;;;;;;;14.84;48.22;93659.50;5051933;28;20181;-56
2023/01/19 03:38:58;;;;;;;19.88;3.95;;;;;;;14.89;47.99;93681.00;5052840;28;20296;-56
2023/01/19 03:41:27;;;;;;;18.37;3.23;;;;;;;14.93;47.65;93694.22;5052542;28;20184;-57
2023/01/19 03:43:55;;;;;;;18.20;3.92;;;;;;;14.96;47.50;93692.13;5050967;28;20885;-55
2023/01/19 03:46:23;;;;;;;13.18;2.70;;;;;;;14.93;47.32;93677.13;5050048;28;20194;-54
2023/01/19 03:48:49;;;;;;;17.85;3.25;;;;;;;14.90;47.17;93669.81;5052775;28;20287;-53
2023/01/19 03:51:16;;;;;;;23.30;3.38;;;;;;;14.96;46.53;93704.91;5052916;28;20215;-52
2023/01/19 03:53:42;;;;;;;24.00;4.53;;;;;;;14.95;47.04;93695.66;5052629;28;20213;-56
2023/01/19 03:56:17;;;;;;;25.90;4.40;;;;;;;14.92;47.35;93713.13;5052822;28;20208;-56
2023/01/19 03:58:42;;;;;;;25.77;4.50;;;;;;;14.83;47.51;93661.25;5052567;28;20201;-56
2023/01/19 04:01:07;;;;;;;16.97;3.80;;;;;;;14.80;47.62;93691.53;5052859;28;20644;-57
2023/01/19 04:03:33;;;;;;;30.23;4.55;;;;;;;14.92;46.55;93669.63;5051054;28;20213;-56
2023/01/19 04:05:58;;;;;;;29.47;5.33;;;;;;;14.99;46.36;93708.88;5051059;28;20214;-56
2023/01/19 04:08:24;;;;;;;28.05;4.63;;;;;;;15.01;45.99;93701.81;5052287;28;20205;-56
2023/01/19 04:10:49;;;;;;;20.48;4.60;;;;;;;15.00;46.16;93700.22;5052732;28;20201;-55
2023/01/19 04:13:14;;;;;;;22.08;4.20;;;;;;;14.93;46.21;93689.91;5050929;28;20205;-56
2023/01/19 04:15:40;;;;;;;28.07;5.93;;;;;;;14.88;46.50;93697.34;5051056;28;20198;-55
2023/01/19 04:18:05;;;;;;;26.13;4.30;;;;;;;14.89;45.96;93716.84;5052396;28;20217;-57
2023/01/19 04:20:32;;;;;;;23.33;5.55;;;;;;;14.96;46.02;93702.38;5052310;28;20206;-56
2023/01/19 04:22:59;;;;;;;24.90;4.88;;;;;;;14.92;45.87;93703.69;5052112;28;20213;-56
2023/01/19 04:25:25;;;;;;;22.13;4.65;;;;;;;14.94;45.61;93723.97;5050745;28;20229;-56
2023/01/19 04:27:51;;;;;;;30.85;5.75;;;;;;;14.91;45.41;93747.34;5052096;28;20241;-57
2023/01/19 04:30:17;;;;;;;25.65;4.15;;;;;;;15.03;44.98;93751.06;5051889;28;20220;-56
2023/01/19 04:32:43;;;;;;;22.50;4.45;;;;;;;14.97;45.31;93747.44;5051917;28;20584;-56
2023/01/19 04:35:08;;;;;;;27.38;5.18;;;;;;;14.93;45.53;93738.53;5052074;28;20219;-54
2023/01/19 04:37:34;;;;;;;25.15;6.20;;;;;;;14.90;45.28;93741.47;5051813;28;20216;-54
2023/01/19 04:39:59;;;;;;;36.03;5.60;;;;;;;14.92;45.12;93756.63;5052235;28;20216;-53
2023/01/19 04:42:26;;;;;;;33.92;7.13;;;;;;;15.04;44.71;93752.66;5051686;28;20592;-53
2023/01/19 04:44:52;;;;;;;44.17;6.53;;;;;;;15.03;44.55;93768.97;5051787;28;20609;-54
2023/01/19 04:47:18;;;;;;;39.08;7.07;;;;;;;15.03;44.70;93777.44;5051613;28;20200;-52
2023/01/19 04:49:44;;;;;;;38.13;7.55;;;;;;;15.04;44.31;93773.94;5051496;28;20504;-56
2023/01/19 04:52:11;;;;;;;33.88;4.90;;;;;;;15.04;44.32;93768.00;5051611;28;20669;-58
2023/01/19 04:54:36;;;;;;;38.07;6.77;;;;;;;15.08;43.80;93770.03;5066792;28;20253;-56
2023/01/19 04:57:02;;;;;;;32.80;6.65;;;;;;;15.25;43.20;93798.00;5051525;28;20338;-56
2023/01/19 04:59:27;;;;;;;24.35;6.10;;;;;;;15.23;43.44;93789.72;5050944;28;20612;-55
2023/01/19 05:01:53;;;;;;;38.78;6.22;;;;;;;15.22;43.49;93795.78;5050333;28;20185;-56
2023/01/19 05:04:18;;;;;;;32.95;6.10;;;;;;;15.23;43.21;93803.28;5049407;28;20221;-53
2023/01/19 05:06:44;;;;;;;34.00;6.10;;;;;;;15.31;42.69;93810.88;5051491;28;20169;-54
2023/01/19 05:09:13;;;;;;;31.52;7.20;;;;;;;15.31;42.64;93815.22;5051338;28;20209;-54
2023/01/19 05:11:39;;;;;;;27.63;6.07;;;;;;;15.33;42.45;93852.47;5051323;28;20235;-54
2023/01/19 05:14:05;;;;;;;32.78;5.65;;;;;;;15.36;42.77;93844.44;5051245;28;20209;-56
2023/01/19 05:16:31;;;;;;;30.80;6.00;;;;;;;15.32;42.90;93842.41;5051593;28;20613;-55
2023/01/19 05:18:57;;;;;;;30.10;5.05;;;;;;;15.35;42.52;93857.41;5051372;28;20206;-56
2023/01/19 05:21:22;;;;;;;24.85;5.35;;;;;;;15.33;42.58;93872.94;5051377;28;20204;-57
2023/01/19 05:23:48;;;;;;;20.17;4.80;;;;;;;15.43;42.27;93901.66;5051026;28;20212;-57
2023/01/19 05:26:13;;;;;;;31.58;5.28;;;;;;;15.49;42.04;93879.69;5051322;28;20201;-56
2023/01/19 05:28:39;;;;;;;26.75;5.35;;;;;;;15.46;42.11;93869.78;5051170;28;20209;-52
2023/01/19 05:31:04;;;;;;;22.45;5.30;;;;;;;15.40;42.17;93878.97;5051500;28;20673;-53
2023/01/19 05:33:30;;;;;;;29.05;5.10;;;;;;;15.51;41.44;93888.00;5051091;28;20205;-59
2023/01/19 05:35:56;;;;;;;26.25;5.53;;;;;;;15.43;42.16;93877.84;5051021;28;20228;-57
2023/01/19 05:38:22;;;;;;;26.38;5.97;;;;;;;15.42;42.23;93892.41;5065694;28;20295;-55
2023/01/19 05:40:47;;;;;;;30.15;6.07;;;;;;;15.44;41.23;93898.16;5051519;28;20205;-55
2023/01/19 05:43:13;;;;;;;24.67;4.40;;;;;;;15.51;41.09;93896.47;5051132;28;20231;-55
2023/01/19 05:45:40;;;;;;;28.83;5.75;;;;;;;15.48;40.78;93889.13;5051215;28;20224;-56
2023/01/19 05:48:08;;;;;;;23.48;5.90;;;;;;;15.58;40.76;93920.41;5050766;28;20213;-56
2023/01/19 05:50:34;;;;;;;18.85;5.82;;;;;;;15.53;41.00;93920.16;5050904;28;20185;-56
2023/01/19 05:53:00;;;;;;;27.38;5.07;;;;;;;15.49;41.19;93921.47;5050895;28;20208;-56
2023/01/19 05:55:27;;;;;;;33.80;5.82;;;;;;;15.44;41.09;93902.47;5050695;28;20244;-55
2023/01/19 05:57:52;;;;;;;36.42;7.63;;;;;;;15.38;41.52;93909.06;5048847;28;20208;-56
2023/01/19 06:00:18;;;;;;;27.30;5.85;;;;;;;15.49;41.10;93918.13;5049536;28;20185;-57
2023/01/19 06:02:45;;;;;;;49.55;7.10;;;;;;;15.26;41.07;93881.53;5050719;28;20201;-52
2023/01/19 06:05:11;;;;;;;32.50;5.20;;;;;;;15.42;41.05;93932.56;5048802;28;20213;-59
2023/01/19 06:07:36;;;;;;;34.08;6.10;;;;;;;15.58;40.70;93961.41;5050627;28;20679;-52
2023/01/19 06:10:02;;;;;;;37.38;6.63;;;;;;;15.62;40.58;93956.72;5050874;28;20212;-56
2023/01/19 06:12:28;;;;;;;29.42;5.97;;;;;;;15.70;40.30;93974.56;5050646;28;20257;-57
2023/01/19 06:14:53;;;;;;;29.50;6.40;;;;;;;15.72;40.11;94003.34;5050584;28;20193;-53
2023/01/19 06:17:19;;;;;;;30.88;5.90;;;;;;;15.69;40.30;93966.09;5050459;28;20196;-56
2023/01/19 06:19:45;;;;;;;30.95;5.80;;;;;;;15.75;40.08;93972.28;5049071;28;20201;-54
2023/01/19 06:22:11;;;;;;;32.20;6.75;;;;;;;15.73;40.41;93956.28;5049234;28;20169;-56
2023/01/19 06:24:37;;;;;;;40.47;5.55;;;;;;;15.72;40.50;93978.53;5065747;28;20221;-54
2023/01/19 06:27:03;;;;;;;32.95;5.78;;;;;;;15.68;40.30;93949.13;5050449;28;20185;-57
2023/01/19 06:29:28;;;;;;;26.30;5.55;;;;;;;15.80;40.12;93991.25;5049292;28;20209;-54
2023/01/19 06:31:53;;;;;;;33.75;6.97;;;;;;;15.78;39.95;93956.53;5050340;28;20174;-56
2023/01/19 06:34:19;;;;;;;26.63;7.05;;;;;;;15.79;39.82;93979.44;5048754;28;20218;-56
2023/01/19 06:36:45;;;;;;;37.97;7.47;;;;;;;15.82;39.49;93984.19;5050454;28;20213;-55
2023/01/19 06:39:11;;;;;;;36.75;6.72;;;;;;;15.81;39.88;94026.19;5065506;28;20699;-53
2023/01/19 06:41:37;;;;;;;31.30;8.63;;;;;;;15.78;40.17;93961.66;5050288;28;20185;-55
2023/01/19 06:44:03;;;;;;;35.97;5.28;;;;;;;15.71;39.96;93969.28;5065150;28;20263;-54
2023/01/19 06:46:29;;;;;;;33.65;5.95;;;;;;;15.79;39.65;94005.06;5050235;28;20212;-55
2023/01/19 06:48:54;;;;;;;32.90;5.72;;;;;;;15.94;39.46;94017.84;5050242;28;20679;-56
2023/01/19 06:51:21;;;;;;;36.55;7.10;;;;;;;15.98;39.27;94053.22;5053920;28;20185;-56
2023/01/19 06:53:46;;;;;;;29.65;6.13;;;;;;;16.03;38.99;94054.44;5053787;28;20742;-57
2023/01/19 06:56:11;;;;;;;31.38;6.15;;;;;;;16.03;39.14;94042.44;5053805;28;20193;-60
2023/01/19 06:58:37;;;;;;;27.63;5.70;;;;;;;16.00;38.70;94054.81;5053549;28;20209;-53
2023/01/19 07:01:04;;;;;;;25.67;6.07;;;;;;;16.08;38.87;94040.13;5053628;28;20732;-56
2023/01/19 07:03:30;;;;;;;31.77;7.30;;;;;;;15.98;39.03;94028.56;5052128;28;20204;-57
2023/01/19 07:05:55;;;;;;;40.15;7.43;;;;;;;16.15;38.44;94058.97;5051326;28;20217;-56
2023/01/19 07:08:22;;;;;;;41.38;6.38;;;;;;;16.23;37.74;94079.38;5052574;28;20201;-54
2023/01/19 07:10:48;;;;;;;32.30;6.35;;;;;;;16.19;37.96;94075.59;5053806;28;20205;-57
2023/01/19 07:13:14;;;;;;;32.90;7.40;;;;;;;16.25;37.94;94071.50;5053391;28;20689;-56
2023/01/19 07:15:39;;;;;;;36.95;7.47;;;;;;;16.27;37.58;94069.56;5053201;28;20225;-53
2023/01/19 07:18:06;;;;;;;49.92;7.70;;;;;;;16.31;37.81;94065.66;5053139;28;20205;-53
2023/01/19 07:20:36;;;;;;;23.60;5.88;;;;;;;16.38;37.62;94085.28;5053445;28;20563;-56
2023/01/19 07:23:02;;;;;;;32.38;6.43;;;;;;;16.38;37.50;94072.47;5053134;28;20210;-58
2023/01/19 07:25:29;;;;;;;24.40;5.60;;;;;;;16.44;36.99;94087.13;5053229;28;20239;-53
2023/01/19 07:28:00;;;;;;;32.15;6.88;;;;;;;16.43;37.10;94084.75;5052998;28;20205;-55
2023/01/19 07:30:26;;;;;;;33.88;6.03;;;;;;;16.50;37.03;94071.06;5051637;28;20583;-55
2023/01/19 07:32:56;;;;;;;26.20;6.40;;;;;;;16.54;37.12;94081.78;5051239;28;20205;-57
2023/01/19 07:35:23;;;;;;;32.60;6.43;;;;;;;16.56;37.17;94103.69;5053239;28;20205;-57
2023/01/19 07:37:49;;;;;;;37.00;6.55;;;;;;;16.55;36.93;94091.84;5052840;28;20201;-56
2023/01/19 07:40:14;;;;;;;30.63;6.18;;;;;;;16.60;36.70;94092.09;5053207;28;20248;-56
2023/01/19 07:42:45;;;;;;;25.65;5.68;;;;;;;16.63;36.22;94137.94;5052680;28;20217;-57
2023/01/19 07:45:11;;;;;;;27.48;5.88;;;;;;;16.73;36.46;94082.00;5052758;28;20221;-56
2023/01/19 07:47:36;;;;;;;33.58;5.93;;;;;;;16.74;36.00;94073.34;5052796;28;20737;-55
2023/01/19 07:50:02;;;;;;;38.22;7.25;;;;;;;16.83;36.06;94060.38;5052818;28;20193;-56
2023/01/19 07:52:28;;;;;;;32.50;5.88;;;;;;;16.87;35.68;94084.72;5052570;28;20300;-55
2023/01/19 07:54:53;;;;;;;33.65;6.35;;;;;;;16.96;35.67;94091.31;5052834;28;20186;-56
2023/01/19 07:57:19;;;;;;;35.83;6.60;;;;;;;16.99;35.72;94071.19;5052622;28;20185;-58
2023/01/19 07:59:45;;;;;;;30.13;7.25;;;;;;;17.16;35.29;94100.00;5052335;28;20193;-55
2023/01/19 08:02:11;;;;;;;26.83;6.68;;;;;;;16.98;35.35;94120.19;5052249;28;20186;-59
2023/01/19 08:04:37;;;;;;;31.48;6.22;;;;;;;17.13;35.50;94078.03;5052589;28;20224;-56
2023/01/19 08:07:02;;;;;;;34.47;6.55;;;;;;;17.12;35.56;94061.06;5051235;28;20178;-56
2023/01/19 08:09:28;;;;;;;35.50;7.10;;;;;;;17.05;35.68;94085.88;5051040;28;20217;-56
2023/01/19 08:11:53;;;;;;;24.90;6.28;;;;;;;17.08;35.62;94105.25;5051157;28;20177;-58
2023/01/19 08:14:25;;;;;;;23.63;5.95;;;;;;;17.15;35.14;94091.50;5052101;28;20201;-56
2023/01/19 08:16:51;;;;;;;23.10;5.57;;;;;;;17.25;35.06;94104.06;5052237;28;20200;-58
2023/01/19 08:19:18;;;;;;;26.95;7.32;;;;;;;17.29;35.23;94077.03;5051068;28;20202;-56
2023/01/19 08:21:45;;;;;;;33.80;5.13;;;;;;;17.35;35.01;94119.97;5052204;28;20213;-56
2023/01/19 08:24:18;;;;;;;28.02;6.47;;;;;;;17.37;35.13;94115.44;5052077;28;20209;-62
2023/01/19 08:26:43;;;;;;;42.85;7.65;;;;;;;17.44;34.73;94103.44;5052059;28;20649;-59
2023/01/19 08:29:09;;;;;;;40.50;7.68;;;;;;;17.38;34.84;94104.16;5051908;28;20203;-56
2023/01/19 08:31:35;;;;;;;40.97;8.18;;;;;;;17.61;34.74;94122.78;5052017;28;20180;-57
2023/01/19 08:34:00;;;;;;;39.00;7.45;;;;;;;17.53;34.92;94079.22;5051894;28;20215;-58
2023/01/19 08:36:26;;;;;;;36.53;6.85;;;;;;;17.79;34.56;94088.91;5052224;28;20231;-59
2023/01/19 08:38:51;;;;;;;34.05;6.75;;;;;;;17.80;34.61;94088.72;5051844;28;20209;-57
2023/01/19 08:41:17;;;;;;;32.45;5.75;;;;;;;17.80;34.53;94118.75;5052318;28;20193;-57
2023/01/19 08:43:44;;;;;;;30.02;6.90;;;;;;;17.68;34.78;94133.91;5051690;28;20771;-58
2023/01/19 08:46:11;;;;;;;29.35;6.85;;;;;;;17.57;34.95;94070.16;5051390;28;20275;-58
2023/01/19 08:48:36;;;;;;;30.73;7.45;;;;;;;17.71;34.87;94089.84;5050298;28;20205;-57
2023/01/19 08:51:02;;;;;;;28.23;7.30;;;;;;;17.76;34.65;94084.94;5051344;28;20192;-57
2023/01/19 08:53:27;;;;;;;28.67;5.93;;;;;;;17.98;34.64;94094.19;5051971;28;20247;-56
2023/01/19 08:56:01;;;;;;;27.55;5.90;;;;;;;18.48;34.13;94095.69;5051832;28;20663;-56
2023/01/19 08:58:27;;;;;;;31.08;6.40;;;;;;;18.25;34.46;94097.72;5051584;28;20262;-57
2023/01/19 09:00:53;;;;;;;37.10;6.30;;;;;;;18.48;33.82;94134.31;5067080;28;20207;-54
2023/01/19 09:03:21;;;;;;;30.00;6.65;;;;;;;18.16;33.74;94099.63;5051582;28;20840;-54
2023/01/19 09:05:47;;;;;;;26.25;5.43;;;;;;;18.05;34.00;94056.44;5051875;28;20213;-54
2023/01/19 09:08:13;;;;;;;38.55;6.35;;;;;;;18.59;33.66;94099.47;5050057;28;20224;-54
2023/01/19 09:10:47;;;;;;;31.55;5.53;;;;;;;18.38;33.76;94093.41;5050311;28;20189;-55
2023/01/19 09:13:13;;;;;;;22.35;5.53;;;;;;;18.23;34.13;94107.41;5049102;28;20213;-54
2023/01/19 09:15:40;;;;;;;33.53;6.75;;;;;;;18.01;34.28;94039.00;5050214;28;20188;-53
2023/01/19 09:18:09;;;;;;;32.40;5.43;;;;;;;18.33;34.05;94046.88;5051170;28;20344;-55
2023/01/19 09:20:37;;;;;;;23.48;5.47;;;;;;;18.44;34.11;94048.91;5051204;28;20186;-55
2023/01/19 09:23:03;;;;;;;19.20;3.38;;;;;;;18.56;33.56;94107.59;5051384;28;20213;-54
2023/01/19 09:25:28;;;;;;;28.80;5.15;;;;;;;18.35;34.06;94034.63;5051062;28;20725;-53
2023/01/19 09:27:54;;;;;;;19.75;4.80;;;;;;;18.46;33.87;94086.56;5050990;28;20209;-54
2023/01/19 09:30:20;;;;;;;26.02;5.70;;;;;;;18.59;33.88;94091.75;5051472;28;20190;-54
2023/01/19 09:32:46;;;;;;;16.75;4.00;;;;;;;18.33;34.07;94020.34;5050930;28;20215;-54
2023/01/19 09:35:12;;;;;;;16.27;3.35;;;;;;;18.36;34.14;94019.97;5051160;28;20239;-53
2023/01/19 09:37:37;;;;;;;22.05;4.40;;;;;;;18.66;33.87;94077.13;5050582;28;20267;-54
2023/01/19 09:40:04;;;;;;;16.65;4.25;;;;;;;18.15;34.31;94007.22;5050870;28;20197;-54
2023/01/19 09:42:43;;;;;;;25.83;5.03;;;;;;;18.47;34.20;93996.28;5050859;28;20206;-55
2023/01/19 09:45:40;;;;;;;20.83;3.92;;;;;;;18.47;34.31;94041.81;5051086;28;20303;-53
2023/01/19 09:48:26;;;;;;;16.65;4.45;;;;;;;18.54;34.22;94017.69;5038671;28;20217;-52
2023/01/19 09:50:53;;;;;;;24.38;4.32;;;;;;;18.39;34.26;94011.84;5051403;28;20247;-56
2023/01/19 09:53:58;;;;;;;21.85;4.32;;;;;;;18.81;33.68;94029.63;5050689;28;20289;-54
2023/01/19 09:56:28;;;;;;;14.88;3.78;;;;;;;18.98;33.48;94050.69;5050846;28;20200;-56
2023/01/19 09:58:53;;;;;;;19.42;3.35;;;;;;;18.63;33.60;94047.41;5050680;28;20201;-54
2023/01/19 10:01:31;;;;;;;14.45;3.55;;;;;;;18.72;33.17;94022.28;5050822;28;20587;-56
2023/01/19 10:04:25;;;;;;;14.85;3.55;;;;;;;18.95;32.71;93999.53;5049546;28;20201;-55
2023/01/19 10:06:58;;;;;;;24.30;4.07;;;;;;;19.29;32.56;94013.03;5048678;28;20205;-54
2023/01/19 10:09:29;;;;;;;27.45;5.03;;;;;;;19.32;32.74;94026.53;5050650;28;20658;-56
2023/01/19 10:12:15;;;;;;;16.42;3.13;;;;;;;19.26;32.94;94003.13;5050526;28;20192;-57
2023/01/19 10:14:47;;;;;;;16.73;3.22;;;;;;;19.06;33.27;94006.69;5048993;28;20654;-56
2023/01/19 10:17:15;;;;;;;13.35;3.30;;;;;;;18.90;33.42;93992.41;5050918;28;20192;-59
2023/01/19 10:19:46;;;;;;;24.83;2.97;;;;;;;18.39;34.70;93947.50;5050937;28;20193;-55
2023/01/19 10:22:32;;;;;;;24.50;4.72;;;;;;;18.44;34.73;93937.47;5066088;28;20181;-54
2023/01/19 10:25:04;;;;;;;15.48;3.78;;;;;;;18.00;34.55;93850.44;5053187;28;20642;-54
2023/01/19 10:27:33;;;;;;;15.07;3.28;;;;;;;18.92;33.90;93956.16;5054058;28;20286;-54
2023/01/19 10:30:00;;;;;;;13.25;3.05;;;;;;;18.36;34.37;93933.25;5054118;28;20194;-57
2023/01/19 10:32:32;;;;;;;20.00;4.05;;;;;;;17.86;35.45;93902.81;5052705;28;20209;-53
2023/01/19 10:34:58;;;;;;;19.92;3.40;;;;;;;17.73;35.19;93928.47;5054093;28;20254;-57
2023/01/19 10:37:30;;;;;;;22.23;4.50;;;;;;;17.46;35.96;93899.25;5053811;28;20186;-53
2023/01/19 10:40:18;;;;;;;22.20;3.75;;;;;;;17.23;36.47;93888.44;5053914;28;20239;-54
2023/01/19 10:42:44;;;;;;;13.43;3.83;;;;;;;17.15;36.59;93864.69;5053833;28;20224;-54
2023/01/19 10:45:21;;;;;;;20.38;3.97;;;;;;;17.09;36.44;93878.28;5053863;28;20209;-59
2023/01/19 10:47:48;;;;;;;16.30;2.80;;;;;;;17.11;36.10;93889.94;5053932;28;20205;-56
2023/01/19 10:50:23;;;;;;;16.02;3.88;;;;;;;17.20;35.63;93870.03;5053767;28;20324;-57
2023/01/19 10:52:54;;;;;;;15.95;3.35;;;;;;;17.20;35.89;93863.13;5053884;28;20698;-56
2023/01/19 10:55:26;;;;;;;22.55;3.35;;;;;;;17.52;35.59;93882.28;5054017;28;20194;-57
2023/01/19 10:57:52;;;;;;;13.95;2.17;;;;;;;17.24;36.09;93871.25;5053675;28;20599;-52
2023/01/19 11:00:32;;;;;;;19.02;3.70;;;;;;;17.11;36.39;93856.53;5054239;28;20190;-53
2023/01/19 11:02:58;;;;;;;12.82;2.95;;;;;;;17.23;36.32;93856.84;5053349;28;20724;-54
2023/01/19 11:05:29;;;;;;;16.13;2.72;;;;;;;16.91;38.09;93790.66;5053665;28;20205;-53
2023/01/19 11:07:55;;;;;;;12.63;3.28;;;;;;;16.74;38.39;93769.63;5068838;28;20251;-56
2023/01/19 11:10:28;;;;;;;17.85;3.80;;;;;;;17.00;38.08;93784.38;5053412;28;20221;-54
2023/01/19 11:13:11;;;;;;;16.38;3.20;;;;;;;16.89;37.74;93818.31;5053190;28;20698;-54
2023/01/19 11:15:46;;;;;;;16.40;3.70;;;;;;;16.95;38.07;93810.63;5053482;28;20197;-53
2023/01/19 11:18:24;;;;;;;7.57;2.85;;;;;;;17.06;37.67;93812.69;5053038;28;20212;-55
2023/01/19 11:20:53;;;;;;;15.15;3.35;;;;;;;17.10;37.19;93821.59;5053624;28;20235;-53
2023/01/19 11:23:18;;;;;;;9.15;2.92;;;;;;;17.28;37.00;93846.75;5053159;28;20213;-55
2023/01/19 11:25:47;;;;;;;10.40;3.10;;;;;;;17.38;36.75;93830.03;5053345;28;20216;-57
2023/01/19 11:28:28;;;;;;;15.75;3.20;;;;;;;17.35;36.77;93825.25;5052872;28;20274;-57
2023/01/19 11:31:14;;;;;;;14.05;3.25;;;;;;;17.23;36.85;93808.03;5053042;28;20682;-57
2023/01/19 11:33:45;;;;;;;13.68;2.90;;;;;;;17.08;36.49;93813.28;5052174;28;20225;-57
2023/01/19 11:36:16;;;;;;;11.52;2.75;;;;;;;17.08;36.66;93818.41;5052163;28;20228;-54
2023/01/19 11:38:43;;;;;;;13.25;2.90;;;;;;;17.06;36.44;93796.47;5052893;28;20225;-57
2023/01/19 11:41:33;;;;;;;16.10;3.42;;;;;;;17.16;36.59;93812.31;5051562;28;20722;-57
2023/01/19 11:44:42;;;;;;;18.73;3.15;;;;;;;17.13;36.41;93830.69;5052566;28;20233;-57